Matilde A — TCUP2 — position and weather

sailwx.info

Track history (hours):
 
Tides and Currents Weather Stations Pressure Air Temp Water Temp Dewpoint Dewpoint Depression Visibility Wind Speed Wind Dir Waves Ship Positions

Matilde A

Last reported at 2018-Jun-23 14:05 UTC. Time now 2018-Jun-24 10:53 UTC.
Position N 36°17' E 015°10'.

Length 156 m; draft 7.5 m.

Type: Cargo ship. MMSI: 271043163.

Date/timePositionNaut miles runAvg speedWind from/ knotsBaromVisibWave heightAir tempDewpointWater temp
2018-Jun-23 14:05N 36°17' E 015°10'114.0
2018-Jun-23 13:59N 36°17' E 015°08'714.0
2018-Jun-23 13:30N 36°17' E 014°60'714.2
2018-Jun-23 13:00N 36°18' E 014°51'1014.0
2018-Jun-23 12:16N 36°18' E 014°38'2314.0
2018-Jun-23 10:37N 36°24' E 014°11'214.2
2018-Jun-23 10:27N 36°25' E 014°08'614.2
2018-Jun-23 10:00N 36°28' E 014°00'714.2
2018-Jun-23 09:30N 36°30' E 013°52'714.1
2018-Jun-23 09:00N 36°32' E 013°44'714.1
2018-Jun-23 08:30N 36°34' E 013°35'714.1
2018-Jun-23 07:58N 36°36' E 013°26'713.8
2018-Jun-23 07:29N 36°38' E 013°18'613.8
2018-Jun-23 07:00N 36°41' E 013°11'714.0
2018-Jun-23 06:30N 36°44' E 013°03'714.2
2018-Jun-23 06:00N 36°46' E 012°55'713.9
2018-Jun-23 05:30N 36°48' E 012°46'714.2
2018-Jun-23 05:00N 36°51' E 012°38'814.6
2018-Jun-23 04:28N 36°53' E 012°29'714.4
2018-Jun-23 04:00N 36°55' E 012°21'714.5
2018-Jun-23 03:30N 36°58' E 012°12'14013.8
2018-Jun-22 17:21N 37°25' E 009°20'  
2018-Jun-16 00:21N 36°42' E 005°12'0 0.1
2018-Jun-15 23:57N 36°42' E 005°12'  
Track history (hours):
 
Tides and Currents Weather Stations Pressure Air Temp Water Temp Dewpoint Dewpoint Depression Visibility Wind Speed Wind Dir Waves Ship Positions

Matilde A

Last reported at 2018-Jun-23 14:05 UTC. Time now 2018-Jun-24 10:53 UTC.
Position N 36°17' E 015°10'.

Length 156 m; draft 7.5 m.

Type: Cargo ship. MMSI: 271043163.

Date/timePositionNaut miles runAvg speedWind from/ knotsBaromVisibWave heightAir tempDewpointWater temp
2018-Jun-23 14:05N 36°17' E 015°10'114.0
2018-Jun-23 13:59N 36°17' E 015°08'714.0
2018-Jun-23 13:30N 36°17' E 014°60'714.2
2018-Jun-23 13:00N 36°18' E 014°51'1014.0
2018-Jun-23 12:16N 36°18' E 014°38'2314.0
2018-Jun-23 10:37N 36°24' E 014°11'214.2
2018-Jun-23 10:27N 36°25' E 014°08'614.2
2018-Jun-23 10:00N 36°28' E 014°00'714.2
2018-Jun-23 09:30N 36°30' E 013°52'714.1
2018-Jun-23 09:00N 36°32' E 013°44'714.1
2018-Jun-23 08:30N 36°34' E 013°35'714.1
2018-Jun-23 07:58N 36°36' E 013°26'713.8
2018-Jun-23 07:29N 36°38' E 013°18'613.8
2018-Jun-23 07:00N 36°41' E 013°11'714.0
2018-Jun-23 06:30N 36°44' E 013°03'714.2
2018-Jun-23 06:00N 36°46' E 012°55'713.9
2018-Jun-23 05:30N 36°48' E 012°46'714.2
2018-Jun-23 05:00N 36°51' E 012°38'814.6
2018-Jun-23 04:28N 36°53' E 012°29'714.4
2018-Jun-23 04:00N 36°55' E 012°21'714.5
2018-Jun-23 03:30N 36°58' E 012°12'14013.8
2018-Jun-22 17:21N 37°25' E 009°20'  
2018-Jun-16 00:21N 36°42' E 005°12'0 0.1
2018-Jun-15 23:57N 36°42' E 005°12'  

Dump ship's entire track history